sensor_id;sensor_type;location;lat;lon;timestamp;P1;durP1;ratioP1;P2;durP2;ratioP2
47958;SDS011;33718;50.910;-1.514;2022-12-20T00:00:51;15.25;;;3.72;;
47958;SDS011;33718;50.910;-1.514;2022-12-20T00:02:53;23.08;;;4.55;;
47958;SDS011;33718;50.910;-1.514;2022-12-20T00:04:55;16.25;;;3.47;;
47958;SDS011;33718;50.910;-1.514;2022-12-20T00:07:14;22.33;;;3.10;;
47958;SDS011;33718;50.910;-1.514;2022-12-20T00:09:32;24.25;;;4.55;;
47958;SDS011;33718;50.910;-1.514;2022-12-20T00:11:34;22.17;;;4.30;;
47958;SDS011;33718;50.910;-1.514;2022-12-20T00:13:42;23.15;;;3.92;;
47958;SDS011;33718;50.910;-1.514;2022-12-20T00:15:46;23.48;;;5.72;;
47958;SDS011;33718;50.910;-1.514;2022-12-20T00:20:51;18.00;;;3.45;;
47958;SDS011;33718;50.910;-1.514;2022-12-20T00:23:16;25.90;;;3.95;;
47958;SDS011;33718;50.910;-1.514;2022-12-20T00:26:23;18.92;;;3.60;;
47958;SDS011;33718;50.910;-1.514;2022-12-20T00:29:32;20.35;;;4.07;;
47958;SDS011;33718;50.910;-1.514;2022-12-20T00:35:55;19.35;;;4.05;;
47958;SDS011;33718;50.910;-1.514;2022-12-20T00:45:50;20.75;;;5.15;;
47958;SDS011;33718;50.910;-1.514;2022-12-20T00:56:25;26.25;;;4.63;;
47958;SDS011;33718;50.910;-1.514;2022-12-20T00:59:30;15.07;;;3.30;;
47958;SDS011;33718;50.910;-1.514;2022-12-20T01:01:39;21.10;;;4.22;;
47958;SDS011;33718;50.910;-1.514;2022-12-20T01:04:08;22.08;;;4.90;;
47958;SDS011;33718;50.910;-1.514;2022-12-20T01:06:46;19.90;;;4.97;;
47958;SDS011;33718;50.910;-1.514;2022-12-20T01:09:01;16.58;;;4.18;;
47958;SDS011;33718;50.910;-1.514;2022-12-20T01:11:20;23.67;;;4.30;;
47958;SDS011;33718;50.910;-1.514;2022-12-20T01:13:43;21.10;;;5.97;;
47958;SDS011;33718;50.910;-1.514;2022-12-20T01:15:48;20.92;;;4.95;;
47958;SDS011;33718;50.910;-1.514;2022-12-20T01:17:56;17.60;;;4.45;;
47958;SDS011;33718;50.910;-1.514;2022-12-20T01:20:04;22.83;;;4.15;;
47958;SDS011;33718;50.910;-1.514;2022-12-20T01:22:58;16.58;;;3.70;;
47958;SDS011;33718;50.910;-1.514;2022-12-20T01:25:53;25.80;;;4.88;;
47958;SDS011;33718;50.910;-1.514;2022-12-20T01:28:21;18.52;;;4.45;;
47958;SDS011;33718;50.910;-1.514;2022-12-20T01:30:32;18.88;;;4.07;;
47958;SDS011;33718;50.910;-1.514;2022-12-20T01:33:20;21.70;;;5.00;;
47958;SDS011;33718;50.910;-1.514;2022-12-20T02:45:31;13.50;;;3.42;;
47958;SDS011;33718;50.910;-1.514;2022-12-20T03:02:10;19.52;;;3.92;;
47958;SDS011;33718;50.910;-1.514;2022-12-20T03:07:22;20.48;;;4.25;;
47958;SDS011;33718;50.910;-1.514;2022-12-20T03:09:24;16.38;;;3.80;;
47958;SDS011;33718;50.910;-1.514;2022-12-20T03:11:30;23.55;;;6.00;;
47958;SDS011;33718;50.910;-1.514;2022-12-20T03:13:40;15.65;;;4.32;;
47958;SDS011;33718;50.910;-1.514;2022-12-20T03:15:46;20.02;;;4.40;;
47958;SDS011;33718;50.910;-1.514;2022-12-20T03:17:59;24.75;;;6.50;;
47958;SDS011;33718;50.910;-1.514;2022-12-20T03:20:05;18.83;;;5.03;;
47958;SDS011;33718;50.910;-1.514;2022-12-20T03:22:07;24.90;;;6.30;;
47958;SDS011;33718;50.910;-1.514;2022-12-20T03:24:09;21.50;;;5.53;;
47958;SDS011;33718;50.910;-1.514;2022-12-20T03:26:17;14.43;;;4.68;;
47958;SDS011;33718;50.910;-1.514;2022-12-20T03:28:40;21.48;;;5.22;;
47958;SDS011;33718;50.910;-1.514;2022-12-20T03:30:46;19.23;;;4.78;;
47958;SDS011;33718;50.910;-1.514;2022-12-20T03:32:53;17.60;;;6.15;;
47958;SDS011;33718;50.910;-1.514;2022-12-20T03:35:09;25.10;;;6.32;;
47958;SDS011;33718;50.910;-1.514;2022-12-20T03:37:41;22.63;;;6.47;;
47958;SDS011;33718;50.910;-1.514;2022-12-20T03:39:52;30.00;;;6.68;;
47958;SDS011;33718;50.910;-1.514;2022-12-20T03:41:57;24.55;;;6.15;;
47958;SDS011;33718;50.910;-1.514;2022-12-20T03:45:03;29.92;;;6.50;;
47958;SDS011;33718;50.910;-1.514;2022-12-20T03:47:21;28.48;;;7.05;;
47958;SDS011;33718;50.910;-1.514;2022-12-20T03:49:29;28.70;;;7.68;;
47958;SDS011;33718;50.910;-1.514;2022-12-20T03:51:43;29.92;;;8.45;;
47958;SDS011;33718;50.910;-1.514;2022-12-20T03:54:03;20.35;;;5.35;;
47958;SDS011;33718;50.910;-1.514;2022-12-20T03:56:11;29.08;;;6.93;;
47958;SDS011;33718;50.910;-1.514;2022-12-20T03:58:25;27.98;;;6.43;;
47958;SDS011;33718;50.910;-1.514;2022-12-20T04:06:25;28.35;;;8.40;;
47958;SDS011;33718;50.910;-1.514;2022-12-20T04:08:35;27.13;;;6.60;;
47958;SDS011;33718;50.910;-1.514;2022-12-20T04:14:42;26.20;;;6.40;;
47958;SDS011;33718;50.910;-1.514;2022-12-20T04:17:24;35.88;;;7.47;;
47958;SDS011;33718;50.910;-1.514;2022-12-20T04:19:43;23.88;;;6.47;;
47958;SDS011;33718;50.910;-1.514;2022-12-20T04:22:00;22.52;;;7.75;;
47958;SDS011;33718;50.910;-1.514;2022-12-20T04:24:29;27.33;;;6.13;;
47958;SDS011;33718;50.910;-1.514;2022-12-20T04:26:35;29.48;;;7.35;;
47958;SDS011;33718;50.910;-1.514;2022-12-20T04:28:37;23.85;;;5.75;;
47958;SDS011;33718;50.910;-1.514;2022-12-20T04:31:19;17.52;;;5.25;;
47958;SDS011;33718;50.910;-1.514;2022-12-20T04:33:26;20.20;;;5.13;;
47958;SDS011;33718;50.910;-1.514;2022-12-20T04:35:31;17.67;;;5.38;;
47958;SDS011;33718;50.910;-1.514;2022-12-20T04:37:46;19.67;;;5.43;;
47958;SDS011;33718;50.910;-1.514;2022-12-20T04:39:53;20.45;;;5.25;;
47958;SDS011;33718;50.910;-1.514;2022-12-20T04:42:30;17.48;;;4.72;;
47958;SDS011;33718;50.910;-1.514;2022-12-20T05:03:24;9.05;;;2.65;;
47958;SDS011;33718;50.910;-1.514;2022-12-20T05:06:01;4.82;;;1.30;;
47958;SDS011;33718;50.910;-1.514;2022-12-20T05:11:40;0.57;;;0.35;;
47958;SDS011;33718;50.910;-1.514;2022-12-20T05:14:23;0.20;;;0.20;;
47958;SDS011;33718;50.910;-1.514;2022-12-20T05:23:44;0.10;;;0.10;;
47958;SDS011;33718;50.910;-1.514;2022-12-20T05:26:15;0.10;;;0.10;;
47958;SDS011;33718;50.910;-1.514;2022-12-20T05:32:06;0.00;;;0.00;;
47958;SDS011;33718;50.910;-1.514;2022-12-20T06:02:40;0.00;;;0.00;;
47958;SDS011;33718;50.910;-1.514;2022-12-20T06:04:45;0.00;;;0.00;;
47958;SDS011;33718;50.910;-1.514;2022-12-20T06:06:50;0.10;;;0.10;;
47958;SDS011;33718;50.910;-1.514;2022-12-20T06:08:55;0.00;;;0.00;;
47958;SDS011;33718;50.910;-1.514;2022-12-20T06:11:00;0.00;;;0.00;;
47958;SDS011;33718;50.910;-1.514;2022-12-20T06:13:09;0.00;;;0.00;;
47958;SDS011;33718;50.910;-1.514;2022-12-20T06:15:11;0.00;;;0.00;;
47958;SDS011;33718;50.910;-1.514;2022-12-20T06:17:35;0.00;;;0.00;;
47958;SDS011;33718;50.910;-1.514;2022-12-20T07:03:44;0.00;;;0.00;;
47958;SDS011;33718;50.910;-1.514;2022-12-20T07:05:53;0.00;;;0.00;;
47958;SDS011;33718;50.910;-1.514;2022-12-20T07:07:56;0.00;;;0.00;;
47958;SDS011;33718;50.910;-1.514;2022-12-20T07:10:06;0.00;;;0.00;;
47958;SDS011;33718;50.910;-1.514;2022-12-20T07:12:16;0.00;;;0.00;;
47958;SDS011;33718;50.910;-1.514;2022-12-20T07:14:24;0.00;;;0.00;;
47958;SDS011;33718;50.910;-1.514;2022-12-20T07:16:32;0.20;;;0.00;;
47958;SDS011;33718;50.910;-1.514;2022-12-20T07:18:35;0.10;;;0.10;;
47958;SDS011;33718;50.910;-1.514;2022-12-20T07:20:40;0.00;;;0.00;;
47958;SDS011;33718;50.910;-1.514;2022-12-20T07:22:48;0.10;;;0.00;;
47958;SDS011;33718;50.910;-1.514;2022-12-20T07:25:10;0.00;;;0.00;;
47958;SDS011;33718;50.910;-1.514;2022-12-20T07:27:31;0.00;;;0.00;;
47958;SDS011;33718;50.910;-1.514;2022-12-20T07:29:35;0.13;;;0.00;;
47958;SDS011;33718;50.910;-1.514;2022-12-20T07:31:44;0.00;;;0.00;;
47958;SDS011;33718;50.910;-1.514;2022-12-20T07:33:50;0.00;;;0.00;;
47958;SDS011;33718;50.910;-1.514;2022-12-20T07:35:59;0.00;;;0.00;;
47958;SDS011;33718;50.910;-1.514;2022-12-20T07:38:03;0.00;;;0.00;;
47958;SDS011;33718;50.910;-1.514;2022-12-20T07:40:09;0.00;;;0.00;;
47958;SDS011;33718;50.910;-1.514;2022-12-20T07:42:13;0.00;;;0.00;;
47958;SDS011;33718;50.910;-1.514;2022-12-20T07:44:22;0.00;;;0.00;;
47958;SDS011;33718;50.910;-1.514;2022-12-20T07:46:58;0.00;;;0.00;;
47958;SDS011;33718;50.910;-1.514;2022-12-20T07:49:24;0.00;;;0.00;;
47958;SDS011;33718;50.910;-1.514;2022-12-20T07:51:54;0.00;;;0.00;;
47958;SDS011;33718;50.910;-1.514;2022-12-20T07:54:31;0.00;;;0.00;;
47958;SDS011;33718;50.910;-1.514;2022-12-20T07:56:58;0.00;;;0.00;;
47958;SDS011;33718;50.910;-1.514;2022-12-20T07:59:18;0.00;;;0.00;;
47958;SDS011;33718;50.910;-1.514;2022-12-20T08:01:48;0.00;;;0.00;;
47958;SDS011;33718;50.910;-1.514;2022-12-20T08:04:13;0.00;;;0.00;;
47958;SDS011;33718;50.910;-1.514;2022-12-20T08:06:48;0.00;;;0.00;;
47958;SDS011;33718;50.910;-1.514;2022-12-20T09:22:22;0.00;;;0.00;;
47958;SDS011;33718;50.910;-1.514;2022-12-20T09:24:32;0.30;;;0.25;;
47958;SDS011;33718;50.910;-1.514;2022-12-20T09:26:40;0.17;;;0.17;;
47958;SDS011;33718;50.910;-1.514;2022-12-20T09:28:46;0.05;;;0.05;;
47958;SDS011;33718;50.910;-1.514;2022-12-20T09:30:51;0.00;;;0.00;;
47958;SDS011;33718;50.910;-1.514;2022-12-20T09:33:00;0.10;;;0.10;;
47958;SDS011;33718;50.910;-1.514;2022-12-20T09:35:17;0.30;;;0.10;;
47958;SDS011;33718;50.910;-1.514;2022-12-20T09:44:49;0.47;;;0.30;;
47958;SDS011;33718;50.910;-1.514;2022-12-20T10:14:35;1.85;;;0.52;;
47958;SDS011;33718;50.910;-1.514;2022-12-20T10:23:59;1.23;;;0.60;;
47958;SDS011;33718;50.910;-1.514;2022-12-20T10:41:00;1.05;;;0.40;;
47958;SDS011;33718;50.910;-1.514;2022-12-20T10:43:22;2.92;;;0.60;;
47958;SDS011;33718;50.910;-1.514;2022-12-20T10:45:29;2.67;;;0.43;;
47958;SDS011;33718;50.910;-1.514;2022-12-20T10:47:40;1.05;;;0.40;;
47958;SDS011;33718;50.910;-1.514;2022-12-20T10:49:43;4.75;;;0.90;;
47958;SDS011;33718;50.910;-1.514;2022-12-20T10:51:52;3.40;;;1.00;;
47958;SDS011;33718;50.910;-1.514;2022-12-20T10:53:59;10.02;;;1.60;;
47958;SDS011;33718;50.910;-1.514;2022-12-20T10:58:16;5.40;;;0.95;;
47958;SDS011;33718;50.910;-1.514;2022-12-20T11:00:28;2.45;;;0.70;;
47958;SDS011;33718;50.910;-1.514;2022-12-20T11:02:41;2.03;;;0.80;;
47958;SDS011;33718;50.910;-1.514;2022-12-20T11:05:24;4.53;;;1.17;;
47958;SDS011;33718;50.910;-1.514;2022-12-20T11:07:29;3.50;;;0.85;;
47958;SDS011;33718;50.910;-1.514;2022-12-20T11:09:36;5.28;;;1.10;;
47958;SDS011;33718;50.910;-1.514;2022-12-20T11:14:31;5.80;;;1.35;;
47958;SDS011;33718;50.910;-1.514;2022-12-20T11:16:43;4.65;;;1.13;;
47958;SDS011;33718;50.910;-1.514;2022-12-20T11:19:18;6.38;;;1.33;;
47958;SDS011;33718;50.910;-1.514;2022-12-20T11:23:51;8.47;;;1.10;;
47958;SDS011;33718;50.910;-1.514;2022-12-20T11:26:14;6.63;;;1.63;;
47958;SDS011;33718;50.910;-1.514;2022-12-20T11:38:05;4.05;;;1.20;;
47958;SDS011;33718;50.910;-1.514;2022-12-20T11:51:46;3.03;;;0.80;;
47958;SDS011;33718;50.910;-1.514;2022-12-20T11:55:59;4.68;;;1.23;;
47958;SDS011;33718;50.910;-1.514;2022-12-20T11:58:12;5.95;;;1.17;;
47958;SDS011;33718;50.910;-1.514;2022-12-20T12:00:23;3.95;;;0.90;;
47958;SDS011;33718;50.910;-1.514;2022-12-20T12:02:30;4.18;;;1.15;;
47958;SDS011;33718;50.910;-1.514;2022-12-20T12:05:02;6.85;;;1.60;;
47958;SDS011;33718;50.910;-1.514;2022-12-20T12:09:20;7.18;;;2.15;;
47958;SDS011;33718;50.910;-1.514;2022-12-20T12:11:24;12.55;;;2.50;;
47958;SDS011;33718;50.910;-1.514;2022-12-20T12:13:50;5.72;;;2.42;;
47958;SDS011;33718;50.910;-1.514;2022-12-20T12:16:08;4.88;;;1.20;;
47958;SDS011;33718;50.910;-1.514;2022-12-20T12:18:18;8.45;;;2.08;;
47958;SDS011;33718;50.910;-1.514;2022-12-20T12:22:41;7.47;;;1.58;;
47958;SDS011;33718;50.910;-1.514;2022-12-20T12:24:48;6.07;;;1.30;;
47958;SDS011;33718;50.910;-1.514;2022-12-20T12:26:52;6.55;;;1.65;;
47958;SDS011;33718;50.910;-1.514;2022-12-20T12:29:01;6.50;;;1.77;;
47958;SDS011;33718;50.910;-1.514;2022-12-20T12:31:09;8.52;;;2.47;;
47958;SDS011;33718;50.910;-1.514;2022-12-20T12:33:19;6.40;;;1.42;;
47958;SDS011;33718;50.910;-1.514;2022-12-20T12:37:53;3.35;;;0.85;;
47958;SDS011;33718;50.910;-1.514;2022-12-20T12:42:27;5.60;;;1.20;;
47958;SDS011;33718;50.910;-1.514;2022-12-20T12:46:42;3.92;;;1.35;;
47958;SDS011;33718;50.910;-1.514;2022-12-20T12:48:55;5.03;;;1.48;;
47958;SDS011;33718;50.910;-1.514;2022-12-20T12:51:02;4.60;;;1.00;;
47958;SDS011;33718;50.910;-1.514;2022-12-20T12:53:12;3.05;;;1.38;;
47958;SDS011;33718;50.910;-1.514;2022-12-20T12:57:56;8.25;;;1.50;;
47958;SDS011;33718;50.910;-1.514;2022-12-20T13:00:18;11.77;;;1.88;;
47958;SDS011;33718;50.910;-1.514;2022-12-20T13:02:32;4.63;;;2.13;;
47958;SDS011;33718;50.910;-1.514;2022-12-20T13:07:02;5.00;;;1.60;;
47958;SDS011;33718;50.910;-1.514;2022-12-20T13:11:31;4.78;;;1.00;;
47958;SDS011;33718;50.910;-1.514;2022-12-20T13:13:38;5.82;;;1.67;;
47958;SDS011;33718;50.910;-1.514;2022-12-20T13:16:03;4.40;;;1.20;;
47958;SDS011;33718;50.910;-1.514;2022-12-20T13:20:18;5.43;;;1.50;;
47958;SDS011;33718;50.910;-1.514;2022-12-20T13:22:24;7.90;;;2.50;;
47958;SDS011;33718;50.910;-1.514;2022-12-20T13:24:35;6.60;;;1.75;;
47958;SDS011;33718;50.910;-1.514;2022-12-20T13:26:42;7.05;;;1.58;;
47958;SDS011;33718;50.910;-1.514;2022-12-20T13:28:50;6.03;;;1.65;;
47958;SDS011;33718;50.910;-1.514;2022-12-20T13:33:19;6.95;;;1.90;;
47958;SDS011;33718;50.910;-1.514;2022-12-20T13:35:27;5.97;;;1.75;;
47958;SDS011;33718;50.910;-1.514;2022-12-20T13:37:50;4.35;;;1.45;;
47958;SDS011;33718;50.910;-1.514;2022-12-20T13:39:58;5.18;;;1.75;;
47958;SDS011;33718;50.910;-1.514;2022-12-20T13:46:24;5.82;;;1.52;;
47958;SDS011;33718;50.910;-1.514;2022-12-20T13:48:48;3.22;;;1.00;;
47958;SDS011;33718;50.910;-1.514;2022-12-20T13:50:52;5.22;;;1.20;;
47958;SDS011;33718;50.910;-1.514;2022-12-20T13:53:02;9.15;;;2.17;;
47958;SDS011;33718;50.910;-1.514;2022-12-20T13:55:15;9.82;;;1.55;;
47958;SDS011;33718;50.910;-1.514;2022-12-20T13:57:21;2.60;;;1.00;;
47958;SDS011;33718;50.910;-1.514;2022-12-20T13:59:34;6.63;;;1.70;;
47958;SDS011;33718;50.910;-1.514;2022-12-20T14:01:45;8.88;;;2.13;;
47958;SDS011;33718;50.910;-1.514;2022-12-20T14:03:52;5.22;;;1.10;;
47958;SDS011;33718;50.910;-1.514;2022-12-20T14:06:02;6.80;;;1.23;;
47958;SDS011;33718;50.910;-1.514;2022-12-20T14:08:12;6.38;;;1.63;;
47958;SDS011;33718;50.910;-1.514;2022-12-20T14:10:25;4.75;;;1.10;;
47958;SDS011;33718;50.910;-1.514;2022-12-20T14:12:35;7.57;;;1.58;;
47958;SDS011;33718;50.910;-1.514;2022-12-20T14:14:46;6.35;;;1.50;;
47958;SDS011;33718;50.910;-1.514;2022-12-20T14:17:13;7.65;;;1.40;;
47958;SDS011;33718;50.910;-1.514;2022-12-20T14:19:20;4.88;;;2.05;;
47958;SDS011;33718;50.910;-1.514;2022-12-20T14:21:26;2.97;;;1.05;;
47958;SDS011;33718;50.910;-1.514;2022-12-20T14:25:57;6.97;;;1.52;;
47958;SDS011;33718;50.910;-1.514;2022-12-20T14:28:14;9.80;;;1.30;;
47958;SDS011;33718;50.910;-1.514;2022-12-20T14:30:33;5.30;;;1.15;;
47958;SDS011;33718;50.910;-1.514;2022-12-20T14:32:39;5.50;;;1.50;;
47958;SDS011;33718;50.910;-1.514;2022-12-20T14:34:47;8.68;;;1.70;;
47958;SDS011;33718;50.910;-1.514;2022-12-20T14:37:16;4.28;;;1.30;;
47958;SDS011;33718;50.910;-1.514;2022-12-20T14:39:33;5.43;;;1.27;;
47958;SDS011;33718;50.910;-1.514;2022-12-20T14:41:39;8.65;;;2.45;;
47958;SDS011;33718;50.910;-1.514;2022-12-20T14:43:41;4.55;;;1.15;;
47958;SDS011;33718;50.910;-1.514;2022-12-20T14:46:14;1.77;;;0.70;;
47958;SDS011;33718;50.910;-1.514;2022-12-20T14:48:19;4.30;;;1.55;;
47958;SDS011;33718;50.910;-1.514;2022-12-20T14:50:32;6.63;;;1.92;;
47958;SDS011;33718;50.910;-1.514;2022-12-20T14:52:42;5.60;;;1.05;;
47958;SDS011;33718;50.910;-1.514;2022-12-20T14:54:45;3.37;;;1.13;;
47958;SDS011;33718;50.910;-1.514;2022-12-20T14:59:24;4.32;;;1.52;;
47958;SDS011;33718;50.910;-1.514;2022-12-20T15:01:26;2.65;;;1.08;;
47958;SDS011;33718;50.910;-1.514;2022-12-20T15:03:34;5.57;;;0.85;;
47958;SDS011;33718;50.910;-1.514;2022-12-20T15:05:40;9.95;;;1.63;;
47958;SDS011;33718;50.910;-1.514;2022-12-20T15:07:45;6.93;;;1.23;;
47958;SDS011;33718;50.910;-1.514;2022-12-20T15:09:53;6.72;;;1.20;;
47958;SDS011;33718;50.910;-1.514;2022-12-20T15:13:59;4.63;;;0.98;;
47958;SDS011;33718;50.910;-1.514;2022-12-20T15:16:11;6.00;;;1.38;;
47958;SDS011;33718;50.910;-1.514;2022-12-20T15:18:15;4.47;;;1.02;;
47958;SDS011;33718;50.910;-1.514;2022-12-20T15:20:20;7.03;;;0.88;;
47958;SDS011;33718;50.910;-1.514;2022-12-20T15:22:25;2.58;;;0.95;;
47958;SDS011;33718;50.910;-1.514;2022-12-20T15:24:33;4.13;;;1.00;;
47958;SDS011;33718;50.910;-1.514;2022-12-20T15:26:38;3.92;;;0.90;;
47958;SDS011;33718;50.910;-1.514;2022-12-20T15:28:41;1.77;;;0.77;;
47958;SDS011;33718;50.910;-1.514;2022-12-20T15:30:45;2.80;;;1.25;;
47958;SDS011;33718;50.910;-1.514;2022-12-20T15:32:48;2.65;;;0.77;;
47958;SDS011;33718;50.910;-1.514;2022-12-20T15:35:02;2.15;;;0.70;;
47958;SDS011;33718;50.910;-1.514;2022-12-20T15:37:03;1.73;;;0.57;;
47958;SDS011;33718;50.910;-1.514;2022-12-20T15:39:13;1.42;;;0.50;;
47958;SDS011;33718;50.910;-1.514;2022-12-20T15:41:23;1.90;;;0.65;;
47958;SDS011;33718;50.910;-1.514;2022-12-20T15:43:26;1.27;;;0.40;;
47958;SDS011;33718;50.910;-1.514;2022-12-20T15:45:28;0.82;;;0.50;;
47958;SDS011;33718;50.910;-1.514;2022-12-20T15:47:30;3.25;;;0.80;;
47958;SDS011;33718;50.910;-1.514;2022-12-20T15:49:31;3.33;;;0.80;;
47958;SDS011;33718;50.910;-1.514;2022-12-20T15:51:34;3.03;;;0.50;;
47958;SDS011;33718;50.910;-1.514;2022-12-20T15:53:38;6.40;;;1.33;;
47958;SDS011;33718;50.910;-1.514;2022-12-20T15:55:48;2.65;;;0.60;;
47958;SDS011;33718;50.910;-1.514;2022-12-20T15:57:53;3.20;;;0.60;;
47958;SDS011;33718;50.910;-1.514;2022-12-20T16:00:01;1.17;;;0.35;;
47958;SDS011;33718;50.910;-1.514;2022-12-20T16:02:11;3.40;;;0.50;;
47958;SDS011;33718;50.910;-1.514;2022-12-20T16:04:18;2.45;;;0.50;;
47958;SDS011;33718;50.910;-1.514;2022-12-20T16:06:20;3.67;;;0.85;;
47958;SDS011;33718;50.910;-1.514;2022-12-20T16:08:27;2.33;;;0.43;;
47958;SDS011;33718;50.910;-1.514;2022-12-20T16:10:28;1.98;;;0.40;;
47958;SDS011;33718;50.910;-1.514;2022-12-20T16:12:36;0.90;;;0.47;;
47958;SDS011;33718;50.910;-1.514;2022-12-20T16:14:41;4.28;;;0.95;;
47958;SDS011;33718;50.910;-1.514;2022-12-20T16:16:44;2.08;;;1.25;;
47958;SDS011;33718;50.910;-1.514;2022-12-20T16:21:25;1.88;;;1.10;;
47958;SDS011;33718;50.910;-1.514;2022-12-20T16:23:33;1.42;;;0.40;;
47958;SDS011;33718;50.910;-1.514;2022-12-20T16:25:41;1.55;;;0.50;;
47958;SDS011;33718;50.910;-1.514;2022-12-20T16:27:44;2.70;;;0.70;;
47958;SDS011;33718;50.910;-1.514;2022-12-20T16:29:49;1.95;;;0.63;;
47958;SDS011;33718;50.910;-1.514;2022-12-20T16:31:53;5.57;;;1.10;;
47958;SDS011;33718;50.910;-1.514;2022-12-20T16:33:59;0.95;;;0.50;;
47958;SDS011;33718;50.910;-1.514;2022-12-20T16:36:03;2.70;;;0.80;;
47958;SDS011;33718;50.910;-1.514;2022-12-20T16:38:08;3.25;;;0.73;;
47958;SDS011;33718;50.910;-1.514;2022-12-20T16:42:50;1.30;;;0.65;;
47958;SDS011;33718;50.910;-1.514;2022-12-20T16:44:52;2.35;;;0.60;;
47958;SDS011;33718;50.910;-1.514;2022-12-20T16:46:55;3.08;;;0.90;;
47958;SDS011;33718;50.910;-1.514;2022-12-20T16:48:57;3.45;;;1.20;;
47958;SDS011;33718;50.910;-1.514;2022-12-20T16:51:02;2.45;;;1.08;;
47958;SDS011;33718;50.910;-1.514;2022-12-20T16:53:04;3.63;;;0.95;;
47958;SDS011;33718;50.910;-1.514;2022-12-20T16:55:12;3.20;;;1.08;;
47958;SDS011;33718;50.910;-1.514;2022-12-20T16:57:21;4.95;;;1.15;;
47958;SDS011;33718;50.910;-1.514;2022-12-20T16:59:30;5.90;;;1.42;;
47958;SDS011;33718;50.910;-1.514;2022-12-20T17:01:39;3.72;;;1.05;;
47958;SDS011;33718;50.910;-1.514;2022-12-20T17:03:49;4.90;;;0.90;;
47958;SDS011;33718;50.910;-1.514;2022-12-20T17:05:56;1.55;;;0.63;;
47958;SDS011;33718;50.910;-1.514;2022-12-20T17:07:58;3.08;;;0.98;;
47958;SDS011;33718;50.910;-1.514;2022-12-20T17:10:05;3.22;;;0.80;;
47958;SDS011;33718;50.910;-1.514;2022-12-20T17:12:37;2.00;;;1.10;;
47958;SDS011;33718;50.910;-1.514;2022-12-20T17:14:46;3.63;;;0.98;;
47958;SDS011;33718;50.910;-1.514;2022-12-20T17:16:53;1.42;;;0.70;;
47958;SDS011;33718;50.910;-1.514;2022-12-20T17:18:59;1.48;;;1.02;;
47958;SDS011;33718;50.910;-1.514;2022-12-20T17:21:19;1.58;;;1.30;;
47958;SDS011;33718;50.910;-1.514;2022-12-20T17:23:24;4.93;;;3.63;;
47958;SDS011;33718;50.910;-1.514;2022-12-20T17:25:47;6.05;;;3.88;;
47958;SDS011;33718;50.910;-1.514;2022-12-20T17:28:01;8.60;;;4.55;;
47958;SDS011;33718;50.910;-1.514;2022-12-20T17:30:04;7.20;;;4.88;;
47958;SDS011;33718;50.910;-1.514;2022-12-20T17:32:18;8.60;;;5.30;;
47958;SDS011;33718;50.910;-1.514;2022-12-20T17:34:28;8.95;;;6.25;;
47958;SDS011;33718;50.910;-1.514;2022-12-20T17:36:33;6.32;;;3.75;;
47958;SDS011;33718;50.910;-1.514;2022-12-20T17:38:45;6.75;;;4.70;;
47958;SDS011;33718;50.910;-1.514;2022-12-20T17:40:52;5.68;;;3.63;;
47958;SDS011;33718;50.910;-1.514;2022-12-20T17:42:59;7.72;;;4.32;;
47958;SDS011;33718;50.910;-1.514;2022-12-20T17:45:30;6.43;;;3.00;;
47958;SDS011;33718;50.910;-1.514;2022-12-20T17:47:30;7.70;;;4.07;;
47958;SDS011;33718;50.910;-1.514;2022-12-20T17:49:33;7.72;;;4.15;;
47958;SDS011;33718;50.910;-1.514;2022-12-20T17:51:35;8.20;;;4.45;;
47958;SDS011;33718;50.910;-1.514;2022-12-20T17:53:42;5.20;;;3.42;;
47958;SDS011;33718;50.910;-1.514;2022-12-20T17:55:44;7.13;;;4.25;;
47958;SDS011;33718;50.910;-1.514;2022-12-20T17:57:46;6.10;;;4.22;;
47958;SDS011;33718;50.910;-1.514;2022-12-20T17:59:54;6.43;;;4.25;;
47958;SDS011;33718;50.910;-1.514;2022-12-20T18:01:59;5.60;;;3.65;;
47958;SDS011;33718;50.910;-1.514;2022-12-20T18:04:11;6.70;;;4.65;;
47958;SDS011;33718;50.910;-1.514;2022-12-20T18:06:16;6.50;;;4.15;;
47958;SDS011;33718;50.910;-1.514;2022-12-20T18:11:00;9.80;;;5.45;;
47958;SDS011;33718;50.910;-1.514;2022-12-20T18:13:27;10.52;;;6.53;;
47958;SDS011;33718;50.910;-1.514;2022-12-20T18:15:36;10.15;;;6.90;;
47958;SDS011;33718;50.910;-1.514;2022-12-20T18:17:38;10.30;;;6.57;;
47958;SDS011;33718;50.910;-1.514;2022-12-20T18:19:40;8.05;;;6.28;;
47958;SDS011;33718;50.910;-1.514;2022-12-20T18:21:44;9.65;;;6.05;;
47958;SDS011;33718;50.910;-1.514;2022-12-20T18:23:52;9.07;;;5.97;;
47958;SDS011;33718;50.910;-1.514;2022-12-20T18:26:03;9.50;;;6.22;;
47958;SDS011;33718;50.910;-1.514;2022-12-20T18:28:08;8.77;;;6.53;;
47958;SDS011;33718;50.910;-1.514;2022-12-20T18:30:17;7.35;;;5.85;;
47958;SDS011;33718;50.910;-1.514;2022-12-20T18:34:24;7.75;;;6.30;;
47958;SDS011;33718;50.910;-1.514;2022-12-20T18:36:26;11.10;;;6.95;;
47958;SDS011;33718;50.910;-1.514;2022-12-20T18:38:28;10.30;;;7.05;;
47958;SDS011;33718;50.910;-1.514;2022-12-20T18:40:30;11.70;;;6.97;;
47958;SDS011;33718;50.910;-1.514;2022-12-20T18:42:38;9.23;;;7.20;;
47958;SDS011;33718;50.910;-1.514;2022-12-20T18:44:44;9.55;;;5.85;;
47958;SDS011;33718;50.910;-1.514;2022-12-20T18:46:54;7.25;;;5.55;;
47958;SDS011;33718;50.910;-1.514;2022-12-20T18:48:56;6.57;;;5.40;;
47958;SDS011;33718;50.910;-1.514;2022-12-20T18:51:06;6.30;;;4.78;;
47958;SDS011;33718;50.910;-1.514;2022-12-20T18:53:09;7.53;;;4.88;;
47958;SDS011;33718;50.910;-1.514;2022-12-20T18:55:15;6.80;;;5.28;;
47958;SDS011;33718;50.910;-1.514;2022-12-20T18:57:23;6.93;;;4.40;;
47958;SDS011;33718;50.910;-1.514;2022-12-20T18:59:32;6.68;;;4.47;;
47958;SDS011;33718;50.910;-1.514;2022-12-20T19:04:07;6.00;;;4.07;;
47958;SDS011;33718;50.910;-1.514;2022-12-20T19:06:09;4.35;;;3.95;;
47958;SDS011;33718;50.910;-1.514;2022-12-20T19:08:12;4.53;;;3.97;;
47958;SDS011;33718;50.910;-1.514;2022-12-20T19:10:13;5.75;;;4.68;;
47958;SDS011;33718;50.910;-1.514;2022-12-20T19:12:20;5.22;;;4.55;;
47958;SDS011;33718;50.910;-1.514;2022-12-20T19:14:24;4.70;;;3.88;;
47958;SDS011;33718;50.910;-1.514;2022-12-20T19:16:32;4.07;;;3.40;;
47958;SDS011;33718;50.910;-1.514;2022-12-20T19:18:38;3.35;;;2.80;;
47958;SDS011;33718;50.910;-1.514;2022-12-20T19:20:46;4.30;;;3.78;;
47958;SDS011;33718;50.910;-1.514;2022-12-20T19:22:56;2.75;;;2.53;;
47958;SDS011;33718;50.910;-1.514;2022-12-20T19:24:57;3.17;;;2.88;;
47958;SDS011;33718;50.910;-1.514;2022-12-20T19:27:26;3.10;;;2.90;;
47958;SDS011;33718;50.910;-1.514;2022-12-20T19:29:35;3.35;;;2.97;;
47958;SDS011;33718;50.910;-1.514;2022-12-20T19:31:40;2.92;;;2.38;;
47958;SDS011;33718;50.910;-1.514;2022-12-20T19:33:45;4.30;;;3.45;;
47958;SDS011;33718;50.910;-1.514;2022-12-20T19:35:50;3.13;;;2.42;;
47958;SDS011;33718;50.910;-1.514;2022-12-20T19:37:56;2.65;;;2.42;;
47958;SDS011;33718;50.910;-1.514;2022-12-20T19:39:59;2.70;;;2.50;;
47958;SDS011;33718;50.910;-1.514;2022-12-20T19:42:06;2.47;;;2.28;;
47958;SDS011;33718;50.910;-1.514;2022-12-20T19:44:29;2.28;;;1.70;;
47958;SDS011;33718;50.910;-1.514;2022-12-20T19:46:32;2.00;;;1.80;;
47958;SDS011;33718;50.910;-1.514;2022-12-20T19:48:35;1.88;;;1.77;;
47958;SDS011;33718;50.910;-1.514;2022-12-20T19:50:36;2.38;;;2.00;;
47958;SDS011;33718;50.910;-1.514;2022-12-20T19:52:38;2.65;;;1.83;;
47958;SDS011;33718;50.910;-1.514;2022-12-20T19:54:46;2.55;;;2.35;;
47958;SDS011;33718;50.910;-1.514;2022-12-20T19:57:12;2.92;;;2.50;;
47958;SDS011;33718;50.910;-1.514;2022-12-20T19:59:16;5.03;;;3.63;;
47958;SDS011;33718;50.910;-1.514;2022-12-20T20:01:18;2.95;;;2.47;;
47958;SDS011;33718;50.910;-1.514;2022-12-20T20:03:24;2.92;;;2.03;;
47958;SDS011;33718;50.910;-1.514;2022-12-20T20:05:28;1.88;;;1.75;;
47958;SDS011;33718;50.910;-1.514;2022-12-20T20:07:41;2.30;;;2.08;;
47958;SDS011;33718;50.910;-1.514;2022-12-20T20:09:50;3.15;;;1.70;;